createdAt,value
2023-05-05T00:00:20.318Z,51.73
2023-05-05T00:01:20.314Z,51.49
2023-05-05T00:02:20.357Z,51.48
2023-05-05T00:03:20.400Z,51.63
2023-05-05T00:04:20.433Z,51.86
2023-05-05T00:05:20.367Z,52.13
2023-05-05T00:06:20.276Z,52.13
2023-05-05T00:07:20.347Z,52.43
2023-05-05T00:08:20.358Z,52.50
2023-05-05T00:09:20.361Z,52.83
2023-05-05T00:10:20.376Z,53.01
2023-05-05T00:11:20.306Z,53.10
2023-05-05T00:12:20.331Z,53.19
2023-05-05T00:13:20.377Z,53.24
2023-05-05T00:14:20.338Z,53.40
2023-05-05T00:15:20.346Z,53.50
2023-05-05T00:16:20.497Z,53.46
2023-05-05T00:17:20.980Z,53.53
2023-05-05T00:18:20.386Z,53.43
2023-05-05T00:19:20.313Z,53.43
2023-05-05T00:20:20.382Z,53.29
2023-05-05T00:21:20.366Z,53.51
2023-05-05T00:22:20.392Z,53.81
2023-05-05T00:23:20.417Z,53.90
2023-05-05T00:24:20.322Z,53.90
2023-05-05T00:25:20.400Z,53.74
2023-05-05T00:26:20.380Z,53.50
2023-05-05T00:27:20.376Z,53.41
2023-05-05T00:28:20.386Z,53.46
2023-05-05T00:29:20.333Z,53.46
2023-05-05T00:31:20.374Z,53.24
2023-05-05T00:32:20.422Z,53.24
2023-05-05T00:33:20.369Z,53.29
2023-05-05T00:34:20.418Z,53.35
2023-05-05T00:36:20.392Z,53.60
2023-05-05T00:38:20.408Z,53.74
2023-05-05T00:39:20.398Z,53.74
2023-05-05T00:40:20.428Z,53.64
2023-05-05T00:41:20.424Z,53.64
2023-05-05T00:42:20.408Z,53.57
2023-05-05T00:43:20.450Z,53.37
2023-05-05T00:44:20.420Z,53.37
2023-05-05T00:45:20.370Z,53.55
2023-05-05T00:46:20.571Z,53.85
2023-05-05T00:47:20.451Z,53.96
2023-05-05T00:49:20.491Z,53.99
2023-05-05T00:51:20.431Z,54.05
2023-05-05T00:53:20.485Z,54.09
2023-05-05T00:54:21.208Z,53.88
2023-05-05T00:55:20.405Z,53.88
2023-05-05T00:56:20.427Z,54.13
2023-05-05T00:57:20.452Z,54.18
2023-05-05T00:58:20.434Z,54.12
2023-05-05T00:59:20.461Z,54.09
2023-05-05T01:00:20.498Z,54.16
2023-05-05T01:02:20.496Z,54.07
2023-05-05T01:03:20.578Z,54.39
2023-05-05T01:04:20.464Z,54.42
2023-05-05T01:05:20.458Z,54.49
2023-05-05T01:06:20.635Z,54.47
2023-05-05T01:07:20.471Z,54.55
2023-05-05T01:09:20.505Z,54.75
2023-05-05T01:10:21.009Z,54.75
2023-05-05T01:11:20.499Z,54.77
2023-05-05T01:12:20.514Z,54.75
2023-05-05T01:13:20.449Z,54.77
2023-05-05T01:14:20.517Z,54.97
2023-05-05T01:15:20.501Z,54.77
2023-05-05T01:16:20.512Z,54.58
2023-05-05T01:17:20.542Z,54.58
2023-05-05T01:18:20.497Z,54.71
2023-05-05T01:19:20.538Z,54.71
2023-05-05T01:20:20.507Z,54.82
2023-05-05T01:21:20.481Z,54.82
2023-05-05T01:22:20.553Z,54.80
2023-05-05T01:23:20.534Z,55.31
2023-05-05T01:24:20.541Z,55.48
2023-05-05T01:25:20.542Z,55.48
2023-05-05T01:26:20.513Z,55.46
2023-05-05T01:27:20.520Z,55.42
2023-05-05T01:28:20.580Z,55.54
2023-05-05T01:29:20.571Z,55.41
2023-05-05T01:30:20.531Z,55.41
2023-05-05T01:31:21.399Z,55.97
2023-05-05T01:32:20.563Z,55.97
2023-05-05T01:33:20.581Z,55.73
2023-05-05T01:34:20.519Z,55.73
2023-05-05T01:36:20.550Z,55.68
2023-05-05T01:38:20.547Z,55.57
2023-05-05T01:39:20.539Z,55.57
2023-05-05T01:40:20.560Z,55.53
2023-05-05T01:41:20.560Z,55.53
2023-05-05T01:42:20.535Z,55.79
2023-05-05T01:43:20.553Z,55.98
2023-05-05T01:46:20.654Z,56.30
2023-05-05T01:47:20.543Z,56.36
2023-05-05T01:48:20.602Z,56.27
2023-05-05T01:49:20.586Z,56.22
2023-05-05T01:50:20.576Z,56.14
2023-05-05T01:51:20.597Z,56.14
2023-05-05T01:52:20.558Z,56.19
2023-05-05T01:53:20.587Z,56.26
2023-05-05T01:54:20.562Z,56.26
2023-05-05T01:55:20.642Z,56.15
2023-05-05T01:56:20.615Z,55.84
2023-05-05T01:57:20.557Z,55.84
2023-05-05T01:58:20.633Z,55.90
2023-05-05T01:59:20.616Z,55.97
2023-05-05T02:00:20.582Z,56.12
2023-05-05T02:01:20.665Z,56.31
2023-05-05T02:02:20.655Z,56.38
2023-05-05T02:03:20.738Z,56.46
2023-05-05T02:04:20.625Z,56.46
2023-05-05T02:05:20.585Z,56.55
2023-05-05T02:07:20.677Z,56.60
2023-05-05T02:08:21.578Z,56.60
2023-05-05T02:09:20.655Z,56.60
2023-05-05T02:10:20.599Z,56.57
2023-05-05T02:12:20.642Z,56.61
2023-05-05T02:13:20.719Z,56.61
2023-05-05T02:15:20.681Z,56.63
2023-05-05T02:16:20.720Z,56.79
2023-05-05T02:17:20.629Z,56.79
2023-05-05T02:18:20.612Z,56.79
2023-05-05T02:19:20.681Z,56.72
2023-05-05T02:20:20.678Z,56.72
2023-05-05T02:21:20.685Z,56.82
2023-05-05T02:22:20.659Z,56.93
2023-05-05T02:24:20.692Z,56.95
2023-05-05T02:25:20.673Z,56.98
2023-05-05T02:29:20.704Z,56.85
2023-05-05T02:30:20.752Z,56.85
2023-05-05T02:31:20.746Z,56.96
2023-05-05T02:32:20.763Z,56.93
2023-05-05T02:34:20.727Z,56.92
2023-05-05T02:36:20.701Z,56.95
2023-05-05T02:37:20.706Z,56.81
2023-05-05T02:39:20.683Z,56.71
2023-05-05T02:43:20.788Z,57.12
2023-05-05T02:44:20.695Z,57.10
2023-05-05T02:45:21.967Z,56.94
2023-05-05T02:46:20.738Z,56.94
2023-05-05T02:47:20.732Z,56.99
2023-05-05T02:48:20.743Z,56.92
2023-05-05T02:49:20.744Z,57.03
2023-05-05T02:50:20.733Z,56.98
2023-05-05T02:52:20.703Z,57.19
2023-05-05T02:53:20.742Z,57.08
2023-05-05T02:54:20.725Z,57.19
2023-05-05T02:55:20.751Z,57.24
2023-05-05T02:57:20.796Z,57.24
2023-05-05T02:58:20.763Z,57.27
2023-05-05T03:01:20.812Z,57.33
2023-05-05T03:02:20.805Z,57.33
2023-05-05T03:03:20.797Z,57.46
2023-05-05T03:04:20.765Z,57.72
2023-05-05T03:05:20.808Z,57.99
2023-05-05T03:06:20.771Z,57.99
2023-05-05T03:07:20.905Z,58.05
2023-05-05T03:08:20.787Z,58.03
2023-05-05T03:09:20.789Z,57.88
2023-05-05T03:10:20.785Z,57.83
2023-05-05T03:11:20.790Z,57.84
2023-05-05T03:12:20.833Z,57.84
2023-05-05T03:13:20.810Z,57.80
2023-05-05T03:14:20.775Z,57.85
2023-05-05T03:15:20.794Z,57.84
2023-05-05T03:16:20.827Z,57.87
2023-05-05T03:17:20.819Z,57.87
2023-05-05T03:18:20.829Z,57.56
2023-05-05T03:19:20.852Z,57.59
2023-05-05T03:20:20.777Z,57.59
2023-05-05T03:21:20.809Z,57.51
2023-05-05T03:22:22.201Z,57.33
2023-05-05T03:24:20.826Z,57.24
2023-05-05T03:25:20.784Z,57.06
2023-05-05T03:26:20.853Z,56.88
2023-05-05T03:27:20.853Z,56.91
2023-05-05T03:28:20.831Z,56.91
2023-05-05T03:29:20.868Z,56.80
2023-05-05T03:30:20.838Z,56.70
2023-05-05T03:31:20.821Z,56.70
2023-05-05T03:32:20.839Z,56.53
2023-05-05T03:33:20.809Z,56.53
2023-05-05T03:34:20.871Z,56.34
2023-05-05T03:35:20.855Z,56.28
2023-05-05T03:36:20.849Z,56.73
2023-05-05T03:37:20.845Z,56.69
2023-05-05T03:38:20.844Z,56.69
2023-05-05T03:39:20.865Z,56.68
2023-05-05T03:40:27.198Z,56.61
2023-05-05T03:41:20.847Z,56.61
2023-05-05T03:42:20.895Z,56.66
2023-05-05T03:43:20.886Z,56.66
2023-05-05T03:44:20.890Z,56.60
2023-05-05T03:45:20.886Z,56.60
2023-05-05T03:46:20.895Z,56.68
2023-05-05T03:48:20.881Z,56.41
2023-05-05T03:49:20.923Z,56.67
2023-05-05T03:50:20.874Z,56.67
2023-05-05T03:51:20.889Z,56.55
2023-05-05T03:52:20.907Z,56.55
2023-05-05T03:53:20.900Z,56.60
2023-05-05T03:54:20.899Z,56.92
2023-05-05T03:55:20.927Z,56.90
2023-05-05T03:56:20.903Z,57.00
2023-05-05T03:57:20.905Z,56.90
2023-05-05T03:58:20.902Z,56.90
2023-05-05T03:59:22.372Z,56.92
2023-05-05T04:00:20.927Z,57.06
2023-05-05T04:02:21.059Z,56.92
2023-05-05T04:03:21.031Z,56.93
2023-05-05T04:04:21.006Z,56.93
2023-05-05T04:05:20.951Z,56.96
2023-05-05T04:06:20.925Z,56.87
2023-05-05T04:08:20.967Z,56.65
2023-05-05T04:09:20.960Z,56.84
2023-05-05T04:10:21.022Z,56.57
2023-05-05T04:11:20.981Z,56.44
2023-05-05T04:12:20.949Z,56.52
2023-05-05T04:13:20.992Z,56.79
2023-05-05T04:15:20.928Z,57.13
2023-05-05T04:16:21.036Z,57.02
2023-05-05T04:17:20.988Z,57.02
2023-05-05T04:18:20.951Z,56.95
2023-05-05T04:19:20.958Z,56.95
2023-05-05T04:20:20.969Z,56.78
2023-05-05T04:21:20.990Z,56.81
2023-05-05T04:23:21.012Z,57.03
2023-05-05T04:24:21.074Z,56.99
2023-05-05T04:25:20.981Z,56.99
2023-05-05T04:26:21.035Z,57.04
2023-05-05T04:27:21.006Z,57.10
2023-05-05T04:30:21.003Z,57.12
2023-05-05T04:31:21.067Z,57.22
2023-05-05T04:32:21.006Z,57.83
2023-05-05T04:33:20.960Z,57.83
2023-05-05T04:34:21.047Z,58.00
2023-05-05T04:35:21.040Z,57.77
2023-05-05T04:36:22.566Z,57.59
2023-05-05T04:39:21.012Z,57.62
2023-05-05T04:40:21.013Z,57.64
2023-05-05T04:41:20.995Z,57.61
2023-05-05T04:42:21.018Z,57.50
2023-05-05T04:43:21.003Z,57.47
2023-05-05T04:44:21.026Z,57.51
2023-05-05T04:45:21.031Z,57.47
2023-05-05T04:46:21.013Z,57.44
2023-05-05T04:47:21.041Z,57.26
2023-05-05T04:48:21.047Z,57.26
2023-05-05T04:49:21.034Z,57.24
2023-05-05T04:50:21.041Z,57.07
2023-05-05T04:51:21.013Z,57.17
2023-05-05T04:52:21.053Z,56.97
2023-05-05T04:53:21.059Z,56.62
2023-05-05T04:54:21.049Z,56.73
2023-05-05T04:55:21.086Z,56.50
2023-05-05T04:56:21.104Z,56.25
2023-05-05T04:57:21.090Z,56.39
2023-05-05T04:58:21.071Z,56.45
2023-05-05T04:59:21.052Z,56.39
2023-05-05T05:00:21.084Z,56.16
2023-05-05T05:01:21.097Z,56.16
2023-05-05T05:02:21.227Z,56.09
2023-05-05T05:03:21.214Z,56.12
2023-05-05T05:04:21.054Z,56.12
2023-05-05T05:05:21.053Z,56.07
2023-05-05T05:06:21.145Z,56.13
2023-05-05T05:07:21.062Z,56.13
2023-05-05T05:08:21.118Z,56.08
2023-05-05T05:09:21.100Z,55.76
2023-05-05T05:10:21.093Z,55.67
2023-05-05T05:12:21.066Z,55.86
2023-05-05T05:13:22.899Z,55.69
2023-05-05T05:15:21.112Z,55.65
2023-05-05T05:17:21.077Z,55.84
2023-05-05T05:18:21.145Z,55.63
2023-05-05T05:19:21.095Z,55.63
2023-05-05T05:20:21.115Z,55.80
2023-05-05T05:21:21.114Z,55.74
2023-05-05T05:22:21.161Z,55.74
2023-05-05T05:23:21.125Z,55.75
2023-05-05T05:24:21.163Z,55.68
2023-05-05T05:25:21.099Z,55.68
2023-05-05T05:26:21.133Z,55.66
2023-05-05T05:27:21.132Z,55.66
2023-05-05T05:28:21.155Z,55.46
2023-05-05T05:29:21.135Z,55.15
2023-05-05T05:30:21.116Z,55.20
2023-05-05T05:31:21.197Z,55.24
2023-05-05T05:32:21.185Z,55.28
2023-05-05T05:33:21.113Z,54.91
2023-05-05T05:34:21.166Z,54.91
2023-05-05T05:35:21.169Z,54.80
2023-05-05T05:36:21.202Z,54.80
2023-05-05T05:37:21.197Z,54.74
2023-05-05T05:38:21.160Z,54.74
2023-05-05T05:39:21.172Z,54.32
2023-05-05T05:40:21.182Z,54.10
2023-05-05T05:41:21.192Z,54.10
2023-05-05T05:42:21.169Z,53.99
2023-05-05T05:43:21.135Z,54.12
2023-05-05T05:44:21.202Z,53.91
2023-05-05T05:45:21.175Z,53.91
2023-05-05T05:46:21.321Z,53.71
2023-05-05T05:47:21.215Z,53.26
2023-05-05T05:48:21.185Z,53.26
2023-05-05T05:49:21.188Z,52.96
2023-05-05T05:50:22.970Z,52.78
2023-05-05T05:51:21.152Z,52.78
2023-05-05T05:52:21.196Z,52.92
2023-05-05T05:53:21.245Z,53.04
2023-05-05T05:54:21.215Z,53.04
2023-05-05T05:55:21.304Z,52.68
2023-05-05T05:56:21.158Z,52.51
2023-05-05T05:57:21.234Z,52.39
2023-05-05T05:58:21.203Z,52.22
2023-05-05T05:59:21.240Z,51.10
2023-05-05T06:00:21.236Z,51.09
2023-05-05T06:01:21.219Z,51.09
2023-05-05T06:02:21.258Z,50.74
2023-05-05T06:03:21.421Z,50.39
2023-05-05T06:04:21.271Z,50.39
2023-05-05T06:05:21.237Z,49.57
2023-05-05T06:07:21.269Z,49.54
2023-05-05T06:09:21.195Z,48.74
2023-05-05T06:11:21.266Z,48.90
2023-05-05T06:12:21.233Z,48.90
2023-05-05T06:13:21.253Z,48.55
2023-05-05T06:14:21.252Z,48.55
2023-05-05T06:15:21.301Z,48.55
2023-05-05T06:16:21.293Z,48.50
2023-05-05T06:17:21.216Z,48.59
2023-05-05T06:18:21.304Z,48.53
2023-05-05T06:19:21.297Z,48.34
2023-05-05T06:20:21.295Z,48.14
2023-05-05T06:21:21.292Z,47.29
2023-05-05T06:22:21.264Z,47.29
2023-05-05T06:23:21.325Z,47.13
2023-05-05T06:24:21.274Z,47.13
2023-05-05T06:25:21.249Z,46.88
2023-05-05T06:26:21.283Z,46.68
2023-05-05T06:27:23.141Z,46.88
2023-05-05T06:28:21.298Z,46.88
2023-05-05T06:29:21.314Z,46.93
2023-05-05T06:30:21.280Z,46.83
2023-05-05T06:31:21.343Z,46.29
2023-05-05T06:32:21.327Z,46.29
2023-05-05T06:33:21.336Z,46.16
2023-05-05T06:34:21.325Z,45.66
2023-05-05T06:35:21.291Z,45.92
2023-05-05T06:36:21.330Z,46.24
2023-05-05T06:37:21.304Z,46.16
2023-05-05T06:38:21.332Z,46.16
2023-05-05T06:39:21.341Z,46.03
2023-05-05T06:40:21.285Z,46.03
2023-05-05T06:41:21.290Z,46.14
2023-05-05T06:42:21.336Z,45.57
2023-05-05T06:43:21.322Z,45.57
2023-05-05T06:44:21.366Z,45.50
2023-05-05T06:45:21.370Z,45.35
2023-05-05T06:46:21.405Z,45.35
2023-05-05T06:47:21.359Z,45.01
2023-05-05T06:48:21.305Z,45.29
2023-05-05T06:49:21.337Z,44.79
2023-05-05T06:50:21.370Z,44.79
2023-05-05T06:51:21.351Z,44.80
2023-05-05T06:52:21.390Z,43.96
2023-05-05T06:53:21.321Z,43.18
2023-05-05T06:54:21.382Z,43.64
2023-05-05T06:55:21.412Z,43.64
2023-05-05T06:56:21.348Z,43.36
2023-05-05T06:57:21.360Z,43.25
2023-05-05T06:58:21.394Z,43.13
2023-05-05T06:59:21.401Z,42.80
2023-05-05T07:00:21.416Z,41.54
2023-05-05T07:01:21.388Z,41.54
2023-05-05T07:02:21.380Z,41.70
2023-05-05T07:03:21.516Z,41.70
2023-05-05T07:04:23.327Z,41.54
2023-05-05T07:05:21.457Z,41.27
2023-05-05T07:06:21.416Z,40.26
2023-05-05T07:07:21.397Z,39.81
2023-05-05T07:08:21.409Z,39.49
2023-05-05T07:09:21.356Z,39.49
2023-05-05T07:11:21.448Z,38.72
2023-05-05T07:12:21.444Z,38.72
2023-05-05T07:13:21.419Z,39.35
2023-05-05T07:14:24.166Z,39.35
2023-05-05T07:15:27.606Z,39.08
2023-05-05T07:16:21.470Z,38.49
2023-05-05T07:17:21.461Z,38.64
2023-05-05T07:18:21.396Z,39.27
2023-05-05T07:19:21.426Z,39.41
2023-05-05T07:20:21.428Z,38.16
2023-05-05T07:21:21.431Z,37.90
2023-05-05T07:22:21.415Z,37.90
2023-05-05T07:23:21.475Z,38.70
2023-05-05T07:24:21.457Z,38.31
2023-05-05T07:25:21.409Z,38.31
2023-05-05T07:26:21.473Z,38.33
2023-05-05T07:27:21.429Z,37.68
2023-05-05T07:28:21.485Z,37.60
2023-05-05T07:29:21.456Z,37.51
2023-05-05T07:30:21.568Z,37.42
2023-05-05T07:31:21.484Z,36.71
2023-05-05T07:32:21.607Z,36.69
2023-05-05T07:33:21.461Z,36.69
2023-05-05T07:34:21.477Z,36.09
2023-05-05T07:35:21.430Z,36.09
2023-05-05T07:36:21.461Z,36.24
2023-05-05T07:37:21.468Z,36.29
2023-05-05T07:38:21.442Z,35.77
2023-05-05T07:39:21.501Z,36.18
2023-05-05T07:40:21.451Z,36.16
2023-05-05T07:41:23.563Z,37.05
2023-05-05T07:42:21.510Z,37.05
2023-05-05T07:43:21.480Z,37.43
2023-05-05T07:44:21.492Z,37.27
2023-05-05T07:45:21.512Z,36.61
2023-05-05T07:46:21.577Z,36.54
2023-05-05T07:47:21.531Z,36.35
2023-05-05T07:48:21.525Z,36.23
2023-05-05T07:49:21.712Z,36.11
2023-05-05T07:50:21.511Z,36.05
2023-05-05T07:51:21.481Z,35.84
2023-05-05T07:52:25.221Z,35.25
2023-05-05T07:53:21.516Z,35.25
2023-05-05T07:54:21.512Z,35.71
2023-05-05T07:55:21.516Z,35.40
2023-05-05T07:56:21.928Z,35.12
2023-05-05T07:57:21.508Z,34.78
2023-05-05T07:58:21.542Z,34.38
2023-05-05T07:59:21.543Z,34.38
2023-05-05T08:00:21.551Z,34.39
2023-05-05T08:01:21.490Z,34.41
2023-05-05T08:02:21.612Z,33.75
2023-05-05T08:03:21.674Z,33.83
2023-05-05T08:04:21.495Z,33.83
2023-05-05T08:05:21.544Z,34.36
2023-05-05T08:06:21.576Z,34.76
2023-05-05T08:07:21.610Z,34.73
2023-05-05T08:08:21.552Z,34.73
2023-05-05T08:09:21.528Z,34.67
2023-05-05T08:10:21.594Z,34.60
2023-05-05T08:11:21.557Z,34.16
2023-05-05T08:12:21.567Z,34.08
2023-05-05T08:13:21.577Z,34.08
2023-05-05T08:14:21.573Z,34.26
2023-05-05T08:15:21.612Z,34.47
2023-05-05T08:16:21.639Z,34.35
2023-05-05T08:17:21.580Z,33.60
2023-05-05T08:18:23.776Z,32.96
2023-05-05T08:19:28.851Z,32.96
2023-05-05T08:21:21.617Z,32.68
2023-05-05T08:22:21.560Z,32.80
2023-05-05T08:23:21.603Z,32.88
2023-05-05T08:24:21.577Z,32.96
2023-05-05T08:25:21.612Z,33.03
2023-05-05T08:26:21.613Z,32.67
2023-05-05T08:27:21.564Z,32.51
2023-05-05T08:28:21.614Z,31.77
2023-05-05T08:29:21.623Z,31.77
2023-05-05T08:30:21.590Z,31.98
2023-05-05T08:31:21.690Z,31.79
2023-05-05T08:32:21.641Z,31.51
2023-05-05T08:33:21.653Z,31.59
2023-05-05T08:34:21.645Z,31.75
2023-05-05T08:35:21.591Z,31.75
2023-05-05T08:36:21.625Z,31.56
2023-05-05T08:37:21.638Z,31.56
2023-05-05T08:38:21.609Z,31.56
2023-05-05T08:39:21.657Z,31.38
2023-05-05T08:40:21.670Z,31.11
2023-05-05T08:41:21.681Z,31.11
2023-05-05T08:42:35.488Z,30.47
2023-05-05T08:43:21.607Z,30.71
2023-05-05T08:44:21.649Z,31.02
2023-05-05T08:45:21.621Z,30.97
2023-05-05T08:46:21.693Z,31.01
2023-05-05T08:47:21.657Z,29.84
2023-05-05T08:48:21.616Z,29.84
2023-05-05T08:49:21.676Z,30.27
2023-05-05T08:50:21.710Z,30.27
2023-05-05T08:51:21.626Z,30.88
2023-05-05T08:53:21.680Z,30.97
2023-05-05T08:54:21.672Z,31.08
2023-05-05T08:55:23.928Z,30.67
2023-05-05T08:56:21.657Z,30.67
2023-05-05T08:57:21.676Z,31.18
2023-05-05T08:58:21.718Z,31.18
2023-05-05T08:59:21.726Z,31.30
2023-05-05T09:00:21.723Z,31.10
2023-05-05T09:01:21.711Z,31.08
2023-05-05T09:02:21.771Z,31.00
2023-05-05T09:03:21.764Z,31.00
2023-05-05T09:04:21.677Z,31.41
2023-05-05T09:05:21.708Z,30.22
2023-05-05T09:06:21.743Z,30.73
2023-05-05T09:07:21.707Z,30.87
2023-05-05T09:08:21.706Z,30.87
2023-05-05T09:09:21.685Z,31.43
2023-05-05T09:10:21.781Z,31.24
2023-05-05T09:11:21.711Z,30.75
2023-05-05T09:12:21.752Z,31.37
2023-05-05T09:13:21.751Z,31.29
2023-05-05T09:14:21.736Z,31.36
2023-05-05T09:15:21.759Z,30.80
2023-05-05T09:17:21.747Z,30.71
2023-05-05T09:18:21.743Z,30.71
2023-05-05T09:19:21.713Z,30.86
2023-05-05T09:20:21.802Z,31.21
2023-05-05T09:21:21.768Z,30.83
2023-05-05T09:22:21.727Z,30.83
2023-05-05T09:23:21.767Z,30.74
2023-05-05T09:24:21.782Z,30.61
2023-05-05T09:25:21.795Z,30.74
2023-05-05T09:26:21.780Z,30.58
2023-05-05T09:28:21.764Z,30.50
2023-05-05T09:29:21.777Z,30.50
2023-05-05T09:30:21.732Z,30.69
2023-05-05T09:31:21.819Z,30.66
2023-05-05T09:32:24.105Z,30.73
2023-05-05T09:33:21.790Z,30.73
2023-05-05T09:34:21.777Z,30.54
2023-05-05T09:35:21.737Z,30.00
2023-05-05T09:36:21.832Z,30.17
2023-05-05T09:37:21.819Z,30.17
2023-05-05T09:38:21.794Z,30.31
2023-05-05T09:39:21.782Z,30.45
2023-05-05T09:40:21.844Z,30.38
2023-05-05T09:41:21.819Z,30.16
2023-05-05T09:43:21.820Z,30.13
2023-05-05T09:44:21.812Z,29.23
2023-05-05T09:45:21.841Z,30.08
2023-05-05T09:46:21.865Z,30.08
2023-05-05T09:47:29.373Z,30.52
2023-05-05T09:48:21.817Z,31.29
2023-05-05T09:49:21.847Z,31.27
2023-05-05T09:50:21.852Z,31.03
2023-05-05T09:51:21.851Z,30.75
2023-05-05T09:52:21.824Z,31.03
2023-05-05T09:53:21.866Z,31.21
2023-05-05T09:54:21.866Z,31.67
2023-05-05T09:55:21.827Z,31.56
2023-05-05T09:56:21.871Z,31.56
2023-05-05T09:57:21.839Z,31.10
2023-05-05T09:58:21.906Z,31.10
2023-05-05T09:59:21.878Z,30.31
2023-05-05T10:00:21.964Z,30.31
2023-05-05T10:01:21.880Z,30.69
2023-05-05T10:02:21.881Z,30.50
2023-05-05T10:03:21.886Z,30.23
2023-05-05T10:04:21.934Z,29.64
2023-05-05T10:05:21.960Z,30.36
2023-05-05T10:06:21.844Z,30.21
2023-05-05T10:07:21.844Z,29.78
2023-05-05T10:08:21.873Z,29.43
2023-05-05T10:09:24.320Z,30.18
2023-05-05T10:10:22.053Z,30.05
2023-05-05T10:11:21.886Z,30.05
2023-05-05T10:12:21.905Z,30.92
2023-05-05T10:13:21.910Z,30.92
2023-05-05T10:14:21.875Z,31.42
2023-05-05T10:15:21.900Z,31.84
2023-05-05T10:16:22.087Z,32.32
2023-05-05T10:17:21.898Z,32.39
2023-05-05T10:18:21.938Z,32.71
2023-05-05T10:19:21.860Z,32.40
2023-05-05T10:20:21.929Z,32.58
2023-05-05T10:21:21.860Z,32.58
2023-05-05T10:22:21.899Z,32.83
2023-05-05T10:23:21.911Z,32.65
2023-05-05T10:24:21.899Z,31.98
2023-05-05T10:25:21.906Z,31.63
2023-05-05T10:26:21.945Z,31.63
2023-05-05T10:27:21.900Z,31.63
2023-05-05T10:28:21.991Z,30.81
2023-05-05T10:29:22.007Z,30.91
2023-05-05T10:30:21.944Z,30.34
2023-05-05T10:31:26.515Z,31.44
2023-05-05T10:34:21.981Z,31.34
2023-05-05T10:35:21.958Z,31.40
2023-05-05T10:36:21.991Z,30.91
2023-05-05T10:37:21.944Z,31.58
2023-05-05T10:38:22.729Z,31.41
2023-05-05T10:39:21.980Z,31.66
2023-05-05T10:40:21.930Z,31.67
2023-05-05T10:41:22.007Z,31.90
2023-05-05T10:42:21.987Z,31.73
2023-05-05T10:43:21.927Z,31.73
2023-05-05T10:44:21.965Z,31.26
2023-05-05T10:45:22.033Z,31.52
2023-05-05T10:46:24.551Z,31.17
2023-05-05T10:47:22.054Z,31.17
2023-05-05T10:48:21.964Z,30.45
2023-05-05T10:49:21.959Z,30.34
2023-05-05T10:50:21.996Z,30.74
2023-05-05T10:51:35.229Z,30.92
2023-05-05T10:52:21.990Z,31.46
2023-05-05T10:53:21.964Z,31.41
2023-05-05T10:54:22.041Z,30.69
2023-05-05T10:55:22.027Z,30.57
2023-05-05T10:56:22.018Z,30.57
2023-05-05T10:57:22.043Z,30.66
2023-05-05T10:58:21.989Z,30.66
2023-05-05T10:59:22.012Z,30.36
2023-05-05T11:00:22.037Z,30.98
2023-05-05T11:01:22.023Z,31.48
2023-05-05T11:02:22.020Z,31.83
2023-05-05T11:03:22.209Z,31.22
2023-05-05T11:04:22.065Z,31.22
2023-05-05T11:05:22.025Z,31.24
2023-05-05T11:06:21.990Z,31.24
2023-05-05T11:07:22.056Z,30.85
2023-05-05T11:08:22.038Z,30.71
2023-05-05T11:09:22.035Z,30.71
2023-05-05T11:10:22.070Z,30.45
2023-05-05T11:11:22.026Z,30.45
2023-05-05T11:12:22.051Z,30.77
2023-05-05T11:13:22.132Z,30.36
2023-05-05T11:15:22.071Z,30.87
2023-05-05T11:16:22.069Z,30.87
2023-05-05T11:17:22.076Z,30.77
2023-05-05T11:18:22.077Z,30.77
2023-05-05T11:19:22.027Z,31.20
2023-05-05T11:20:22.083Z,29.84
2023-05-05T11:21:22.097Z,30.14
2023-05-05T11:22:22.082Z,30.14
2023-05-05T11:23:24.715Z,31.44
2023-05-05T11:24:22.044Z,31.44
2023-05-05T11:25:22.077Z,30.46
2023-05-05T11:26:22.106Z,30.43
2023-05-05T11:27:22.051Z,30.31
2023-05-05T11:28:22.054Z,29.97
2023-05-05T11:29:22.050Z,30.02
2023-05-05T11:30:22.092Z,29.93
2023-05-05T11:31:22.163Z,29.95
2023-05-05T11:32:22.051Z,30.77
2023-05-05T11:33:22.127Z,30.48
2023-05-05T11:34:22.120Z,30.57
2023-05-05T11:35:22.137Z,30.57
2023-05-05T11:36:22.099Z,30.58
2023-05-05T11:37:22.079Z,30.96
2023-05-05T11:38:22.114Z,31.48
2023-05-05T11:39:22.113Z,31.48
2023-05-05T11:40:22.139Z,31.09
2023-05-05T11:41:22.168Z,31.54
2023-05-05T11:42:22.106Z,30.91
2023-05-05T11:43:22.178Z,31.11
2023-05-05T11:44:22.146Z,29.17
2023-05-05T11:45:22.108Z,28.93
2023-05-05T11:46:22.190Z,29.33
2023-05-05T11:47:22.160Z,29.73
2023-05-05T11:49:22.137Z,30.30
2023-05-05T11:50:22.150Z,30.30
2023-05-05T11:52:22.164Z,29.92
2023-05-05T11:53:22.192Z,29.92
2023-05-05T11:54:22.172Z,30.02
2023-05-05T11:55:22.109Z,29.88
2023-05-05T11:56:22.145Z,30.31
2023-05-05T11:58:22.164Z,30.68
2023-05-05T11:59:22.204Z,30.68
2023-05-05T12:00:24.900Z,30.86
2023-05-05T12:03:22.290Z,30.94
2023-05-05T12:04:22.228Z,30.95
2023-05-05T12:05:22.184Z,31.32
2023-05-05T12:06:22.182Z,31.21
2023-05-05T12:07:22.187Z,31.04
2023-05-05T12:08:22.145Z,30.73
2023-05-05T12:09:22.176Z,30.61
2023-05-05T12:10:22.224Z,30.27
2023-05-05T12:11:22.210Z,30.27
2023-05-05T12:12:22.219Z,30.33
2023-05-05T12:13:22.297Z,29.65
2023-05-05T12:14:22.258Z,30.51
2023-05-05T12:17:22.225Z,30.59
2023-05-05T12:18:22.241Z,30.59
2023-05-05T12:19:22.247Z,31.31
2023-05-05T12:20:22.245Z,30.82
2023-05-05T12:22:22.197Z,29.59
2023-05-05T12:23:22.246Z,29.68
2023-05-05T12:24:22.238Z,30.11
2023-05-05T12:25:22.261Z,30.07
2023-05-05T12:26:22.249Z,29.68
2023-05-05T12:27:22.260Z,29.92
2023-05-05T12:28:22.238Z,29.42
2023-05-05T12:29:22.198Z,29.42
2023-05-05T12:30:22.296Z,29.14
2023-05-05T12:31:22.285Z,29.79
2023-05-05T12:32:22.266Z,29.79
2023-05-05T12:33:22.261Z,29.83
2023-05-05T12:34:22.288Z,29.71
2023-05-05T12:35:22.286Z,29.71
2023-05-05T12:36:22.264Z,30.56
2023-05-05T12:37:25.120Z,31.37
2023-05-05T12:38:22.287Z,31.37
2023-05-05T12:39:22.306Z,31.94
2023-05-05T12:40:22.329Z,32.11
2023-05-05T12:41:22.313Z,32.11
2023-05-05T12:42:22.289Z,31.59
2023-05-05T12:43:22.262Z,31.02
2023-05-05T12:44:22.318Z,30.92
2023-05-05T12:45:22.250Z,31.42
2023-05-05T12:46:22.427Z,30.62
2023-05-05T12:47:22.290Z,31.11
2023-05-05T12:48:22.325Z,31.11
2023-05-05T12:49:22.303Z,30.86
2023-05-05T12:50:22.279Z,31.16
2023-05-05T12:51:22.304Z,31.54
2023-05-05T12:52:22.302Z,30.46
2023-05-05T12:53:22.311Z,30.46
2023-05-05T12:56:22.365Z,30.12
2023-05-05T12:57:22.350Z,29.91
2023-05-05T12:58:22.319Z,29.13
2023-05-05T12:59:22.312Z,28.91
2023-05-05T13:00:22.325Z,29.58
2023-05-05T13:01:22.358Z,30.44
2023-05-05T13:02:22.420Z,30.65
2023-05-05T13:03:22.445Z,30.30
2023-05-05T13:04:22.370Z,30.30
2023-05-05T13:05:22.350Z,30.05
2023-05-05T13:06:22.343Z,28.87
2023-05-05T13:07:22.377Z,29.15
2023-05-05T13:08:22.368Z,29.61
2023-05-05T13:09:22.386Z,28.44
2023-05-05T13:10:22.345Z,28.44
2023-05-05T13:11:22.352Z,28.59
2023-05-05T13:12:24.973Z,29.67
2023-05-05T13:14:25.281Z,28.67
2023-05-05T13:16:22.417Z,29.07
2023-05-05T13:17:22.375Z,29.43
2023-05-05T13:18:22.410Z,29.43
2023-05-05T13:19:22.348Z,28.68
2023-05-05T13:20:22.398Z,28.40
2023-05-05T13:21:22.391Z,28.50
2023-05-05T13:22:22.423Z,29.18
2023-05-05T13:24:34.409Z,29.52
2023-05-05T13:26:22.440Z,29.00
2023-05-05T13:27:22.377Z,29.00
2023-05-05T13:28:22.405Z,29.68
2023-05-05T13:29:23.591Z,29.71
2023-05-05T13:30:22.414Z,29.18
2023-05-05T13:31:22.466Z,28.85
2023-05-05T13:32:22.402Z,29.01
2023-05-05T13:33:22.405Z,28.77
2023-05-05T13:34:22.436Z,29.14
2023-05-05T13:35:22.430Z,29.29
2023-05-05T13:36:22.448Z,29.29
2023-05-05T13:37:22.437Z,29.76
2023-05-05T13:38:22.436Z,29.94
2023-05-05T13:39:22.429Z,30.96
2023-05-05T13:40:23.818Z,30.96
2023-05-05T13:41:22.471Z,31.08
2023-05-05T13:42:22.449Z,31.08
2023-05-05T13:43:22.483Z,31.03
2023-05-05T13:44:22.413Z,31.03
2023-05-05T13:45:22.453Z,31.21
2023-05-05T13:46:22.448Z,31.17
2023-05-05T13:47:22.713Z,30.49
2023-05-05T13:48:22.448Z,30.41
2023-05-05T13:49:22.487Z,30.71
2023-05-05T13:51:25.491Z,30.80
2023-05-05T13:52:22.474Z,31.36
2023-05-05T13:53:22.451Z,31.36
2023-05-05T13:54:22.495Z,31.72
2023-05-05T13:55:22.501Z,31.30
2023-05-05T13:56:22.482Z,30.64
2023-05-05T13:57:22.509Z,30.54
2023-05-05T13:58:22.447Z,30.60
2023-05-05T13:59:22.448Z,30.32
2023-05-05T14:01:22.589Z,30.72
2023-05-05T14:02:22.518Z,30.72